createdAt,value
2022-12-22T00:02:23.474Z,45.85
2022-12-22T00:05:08.637Z,45.63
2022-12-22T00:07:54.242Z,45.40
2022-12-22T00:10:39.696Z,47.65
2022-12-22T00:13:29.568Z,54.40
2022-12-22T00:16:15.071Z,51.58
2022-12-22T00:19:00.461Z,50.88
2022-12-22T00:21:48.840Z,53.15
2022-12-22T00:24:34.408Z,47.90
2022-12-22T00:27:19.936Z,47.35
2022-12-22T00:30:05.408Z,46.78
2022-12-22T00:32:54.067Z,48.17
2022-12-22T00:35:44.857Z,48.28
2022-12-22T00:38:39.082Z,41.17
2022-12-22T00:41:25.048Z,46.80
2022-12-22T00:46:58.650Z,43.05
2022-12-22T00:49:46.081Z,43.30
2022-12-22T00:52:31.703Z,41.58
2022-12-22T00:55:17.320Z,38.42
2022-12-22T00:58:03.320Z,37.92
2022-12-22T01:03:34.299Z,39.50
2022-12-22T01:06:21.509Z,44.42
2022-12-22T01:09:07.119Z,42.15
2022-12-22T01:11:53.089Z,39.35
2022-12-22T01:17:23.662Z,41.33
2022-12-22T01:20:09.073Z,43.08
2022-12-22T01:22:54.538Z,42.33
2022-12-22T01:25:40.292Z,41.25
2022-12-22T01:28:28.300Z,38.13
2022-12-22T01:31:14.154Z,40.08
2022-12-22T01:33:59.300Z,38.42
2022-12-22T01:36:44.701Z,41.50
2022-12-22T01:39:30.174Z,38.15
2022-12-22T01:42:15.723Z,39.45
2022-12-22T01:45:01.050Z,43.38
2022-12-22T01:47:46.184Z,44.15
2022-12-22T01:50:47.448Z,42.90
2022-12-22T01:53:46.587Z,40.88
2022-12-22T01:56:32.541Z,40.47
2022-12-22T01:59:21.662Z,44.45
2022-12-22T02:02:07.332Z,39.50
2022-12-22T02:04:57.394Z,41.78
2022-12-22T02:08:09.989Z,43.03
2022-12-22T02:11:04.314Z,43.60
2022-12-22T02:13:57.684Z,42.65
2022-12-22T02:16:58.386Z,42.42
2022-12-22T02:19:43.777Z,41.72
2022-12-22T02:22:52.256Z,42.83
2022-12-22T02:25:45.160Z,44.10
2022-12-22T02:28:32.988Z,39.70
2022-12-22T02:31:18.442Z,45.65
2022-12-22T02:34:03.843Z,45.95
2022-12-22T02:37:13.368Z,41.35
2022-12-22T02:40:25.709Z,42.40
2022-12-22T02:43:26.370Z,44.72
2022-12-22T02:46:28.806Z,43.65
2022-12-22T02:49:28.566Z,42.72
2022-12-22T02:52:26.760Z,47.13
2022-12-22T02:55:12.608Z,43.75
2022-12-22T02:57:58.312Z,42.80
2022-12-22T03:00:43.969Z,43.85
2022-12-22T03:03:29.455Z,44.28
2022-12-22T03:06:14.718Z,47.22
2022-12-22T03:09:00.268Z,46.10
2022-12-22T03:11:45.813Z,48.33
2022-12-22T03:14:31.319Z,48.25
2022-12-22T03:17:16.742Z,43.35
2022-12-22T03:20:02.080Z,44.88
2022-12-22T03:22:47.506Z,46.38
2022-12-22T03:25:32.945Z,48.33
2022-12-22T03:28:07.569Z,46.78
2022-12-22T03:30:34.720Z,48.07
2022-12-22T03:33:01.855Z,48.25
2022-12-22T03:35:28.683Z,47.47
2022-12-22T03:37:55.381Z,48.28
2022-12-22T03:40:22.127Z,46.10
2022-12-22T03:43:07.511Z,45.65
2022-12-22T03:45:52.757Z,47.85
2022-12-22T03:48:19.596Z,46.30
2022-12-22T03:50:46.404Z,43.03
2022-12-22T03:53:13.160Z,44.28
2022-12-22T03:55:39.900Z,42.55
2022-12-22T03:58:06.693Z,45.20
2022-12-22T04:00:33.478Z,50.72
2022-12-22T04:03:00.564Z,50.30
2022-12-22T04:05:27.352Z,46.00
2022-12-22T04:07:54.022Z,49.35
2022-12-22T04:10:39.310Z,45.25
2022-12-22T04:13:06.100Z,47.00
2022-12-22T04:15:33.021Z,48.90
2022-12-22T04:18:00.499Z,44.83
2022-12-22T04:20:28.265Z,47.78
2022-12-22T04:22:56.262Z,56.42
2022-12-22T04:25:24.172Z,51.00
2022-12-22T04:27:50.983Z,52.10
2022-12-22T04:30:17.911Z,52.90
2022-12-22T04:32:45.256Z,49.28
2022-12-22T04:35:12.226Z,51.85
2022-12-22T04:37:39.157Z,53.00
2022-12-22T04:40:06.823Z,49.70
2022-12-22T04:42:33.625Z,53.63
2022-12-22T04:45:00.362Z,52.75
2022-12-22T04:47:27.083Z,47.40
2022-12-22T04:49:55.792Z,50.92
2022-12-22T04:52:22.785Z,53.90
2022-12-22T04:54:49.609Z,51.45
2022-12-22T04:57:16.639Z,46.08
2022-12-22T04:59:43.452Z,48.67
2022-12-22T05:02:10.394Z,45.58
2022-12-22T05:04:37.129Z,47.40
2022-12-22T05:07:04.373Z,52.42
2022-12-22T05:09:31.453Z,48.97
2022-12-22T05:11:58.196Z,47.80
2022-12-22T05:14:25.032Z,45.72
2022-12-22T05:16:52.005Z,48.13
2022-12-22T05:19:18.816Z,48.25
2022-12-22T05:21:45.543Z,46.72
2022-12-22T05:24:12.928Z,47.80
2022-12-22T05:26:39.735Z,48.08
2022-12-22T05:29:06.581Z,45.17
2022-12-22T05:31:35.100Z,43.72
2022-12-22T05:34:01.793Z,46.35
2022-12-22T05:36:28.607Z,53.35
2022-12-22T05:38:55.423Z,48.65
2022-12-22T05:41:22.138Z,47.65
2022-12-22T05:43:49.031Z,51.72
2022-12-22T05:46:16.398Z,56.15
2022-12-22T05:48:43.064Z,52.00
2022-12-22T05:51:10.878Z,48.00
2022-12-22T05:53:38.678Z,52.35
2022-12-22T05:56:06.050Z,57.50
2022-12-22T05:58:33.331Z,53.25
2022-12-22T06:01:00.601Z,58.25
2022-12-22T06:03:29.249Z,51.92
2022-12-22T06:05:56.415Z,58.55
2022-12-22T06:08:23.592Z,49.95
2022-12-22T06:10:50.504Z,55.10
2022-12-22T06:13:17.333Z,55.38
2022-12-22T06:15:44.508Z,52.50
2022-12-22T06:18:11.227Z,49.88
2022-12-22T06:20:38.034Z,48.75
2022-12-22T06:23:04.848Z,50.35
2022-12-22T06:25:31.586Z,43.83
2022-12-22T06:27:58.317Z,48.40
2022-12-22T06:30:32.750Z,49.63
2022-12-22T06:33:01.166Z,45.35
2022-12-22T06:35:28.558Z,49.40
2022-12-22T06:37:55.256Z,53.00
2022-12-22T06:40:22.033Z,57.30
2022-12-22T06:43:08.950Z,58.05
2022-12-22T06:45:41.610Z,49.90
2022-12-22T06:48:10.109Z,49.35
2022-12-22T06:50:37.136Z,53.85
2022-12-22T06:53:05.064Z,49.90
2022-12-22T06:55:31.846Z,50.83
2022-12-22T06:57:58.809Z,52.08
2022-12-22T07:00:25.646Z,50.25
2022-12-22T07:02:52.901Z,49.42
2022-12-22T07:05:20.118Z,53.15
2022-12-22T07:07:46.927Z,51.13
2022-12-22T07:10:13.799Z,48.40
2022-12-22T07:12:40.913Z,55.42
2022-12-22T07:15:08.824Z,57.45
2022-12-22T07:17:36.073Z,67.93
2022-12-22T07:20:02.996Z,69.32
2022-12-22T07:22:30.941Z,63.97
2022-12-22T07:24:58.503Z,60.95
2022-12-22T07:27:25.276Z,50.28
2022-12-22T07:29:51.968Z,51.08
2022-12-22T07:32:18.750Z,52.42
2022-12-22T07:34:45.572Z,47.38
2022-12-22T07:37:13.680Z,48.13
2022-12-22T07:39:40.516Z,52.40
2022-12-22T07:42:25.621Z,50.53
2022-12-22T07:44:52.324Z,50.00
2022-12-22T07:47:18.992Z,50.22
2022-12-22T07:50:04.637Z,49.00
2022-12-22T07:52:31.313Z,49.40
2022-12-22T07:54:58.113Z,51.60
2022-12-22T07:57:26.503Z,48.33
2022-12-22T07:59:53.646Z,52.47
2022-12-22T08:02:20.501Z,45.03
2022-12-22T08:04:47.306Z,50.15
2022-12-22T08:07:14.085Z,51.10
2022-12-22T08:09:40.808Z,56.17
2022-12-22T08:12:07.673Z,59.70
2022-12-22T08:14:34.401Z,53.10
2022-12-22T08:17:01.042Z,55.55
2022-12-22T08:19:27.921Z,56.40
2022-12-22T08:21:54.633Z,55.67
2022-12-22T08:24:21.702Z,55.00
2022-12-22T08:26:54.017Z,54.33
2022-12-22T08:29:34.355Z,54.75
2022-12-22T08:32:01.917Z,52.30
2022-12-22T08:34:28.855Z,54.83
2022-12-22T08:36:59.426Z,56.25
2022-12-22T08:39:28.703Z,54.40
2022-12-22T08:41:55.479Z,62.55
2022-12-22T08:44:24.834Z,60.58
2022-12-22T08:46:53.556Z,59.85
2022-12-22T08:49:20.326Z,63.28
2022-12-22T08:51:47.710Z,60.55
2022-12-22T08:54:14.591Z,57.13
2022-12-22T08:56:41.612Z,60.05
2022-12-22T08:59:09.154Z,64.65
2022-12-22T09:01:37.500Z,58.83
2022-12-22T09:04:04.894Z,58.38
2022-12-22T09:06:38.558Z,57.83
2022-12-22T09:09:09.513Z,59.95
2022-12-22T09:11:36.251Z,57.53
2022-12-22T09:14:03.437Z,58.38
2022-12-22T09:16:33.023Z,60.63
2022-12-22T09:19:00.561Z,60.10
2022-12-22T09:21:27.876Z,59.85
2022-12-22T09:23:55.749Z,53.10
2022-12-22T09:26:24.901Z,57.38
2022-12-22T09:28:52.207Z,53.70
2022-12-22T09:31:21.090Z,59.17
2022-12-22T09:33:48.001Z,56.50
2022-12-22T09:36:18.694Z,59.90
2022-12-22T09:38:45.969Z,59.10
2022-12-22T09:41:20.521Z,54.65
2022-12-22T09:43:47.537Z,52.53
2022-12-22T09:46:29.652Z,49.45
2022-12-22T09:48:56.958Z,52.47
2022-12-22T09:51:27.071Z,50.00
2022-12-22T09:54:01.201Z,55.17
2022-12-22T09:56:29.374Z,46.55
2022-12-22T09:58:56.551Z,52.67
2022-12-22T10:01:41.695Z,52.22
2022-12-22T10:04:08.368Z,50.43
2022-12-22T10:06:54.732Z,55.92
2022-12-22T10:09:49.502Z,52.88
2022-12-22T10:12:19.021Z,49.95
2022-12-22T10:14:50.773Z,55.88
2022-12-22T10:17:33.838Z,48.78
2022-12-22T10:20:19.712Z,52.45
2022-12-22T10:22:52.810Z,53.13
2022-12-22T10:28:44.673Z,50.25
2022-12-22T10:31:24.771Z,47.67
2022-12-22T10:33:54.652Z,46.67
2022-12-22T10:36:28.587Z,44.60
2022-12-22T10:39:06.844Z,48.63
2022-12-22T10:41:47.083Z,44.05
2022-12-22T10:44:17.064Z,44.45
2022-12-22T10:46:55.572Z,41.55
2022-12-22T10:49:30.386Z,41.42
2022-12-22T10:52:25.471Z,41.43
2022-12-22T10:55:16.941Z,40.20
2022-12-22T10:57:43.727Z,42.58
2022-12-22T11:00:31.456Z,40.20
2022-12-22T11:03:01.113Z,39.08
2022-12-22T11:05:28.949Z,40.28
2022-12-22T11:07:56.199Z,41.70
2022-12-22T11:10:22.814Z,44.83
2022-12-22T11:13:07.819Z,46.70
2022-12-22T11:15:45.930Z,42.17
2022-12-22T11:18:41.995Z,38.70
2022-12-22T11:21:22.131Z,40.42
2022-12-22T11:24:16.233Z,40.63
2022-12-22T11:27:07.782Z,40.33
2022-12-22T11:30:04.691Z,38.72
2022-12-22T11:32:40.657Z,48.50
2022-12-22T11:35:41.549Z,38.65
2022-12-22T11:38:51.859Z,42.00
2022-12-22T11:41:27.453Z,38.72
2022-12-22T11:46:38.905Z,43.97
2022-12-22T11:49:14.785Z,37.00
2022-12-22T11:51:56.538Z,38.03
2022-12-22T11:55:10.519Z,39.55
2022-12-22T11:58:02.126Z,41.42
2022-12-22T12:01:04.180Z,44.30
2022-12-22T12:03:33.700Z,34.47
2022-12-22T12:06:06.043Z,33.28
2022-12-22T12:09:03.511Z,34.20
2022-12-22T12:11:47.822Z,35.15
2022-12-22T12:14:32.771Z,43.83
2022-12-22T12:17:02.963Z,38.30
2022-12-22T12:19:44.923Z,40.72
2022-12-22T12:22:19.765Z,41.60
2022-12-22T12:25:28.784Z,40.83
2022-12-22T12:28:25.785Z,37.95
2022-12-22T12:30:59.160Z,37.50
2022-12-22T12:33:54.254Z,42.33
2022-12-22T12:36:38.081Z,38.42
2022-12-22T12:39:38.856Z,39.45
2022-12-22T12:42:17.712Z,38.22
2022-12-22T12:44:45.955Z,39.17
2022-12-22T12:47:36.076Z,40.03
2022-12-22T12:50:44.257Z,37.80
2022-12-22T12:53:11.564Z,36.30
2022-12-22T12:55:38.625Z,38.58
2022-12-22T12:58:10.040Z,35.88
2022-12-22T13:00:39.501Z,37.40
2022-12-22T13:04:01.959Z,36.10
2022-12-22T13:06:49.868Z,36.40
2022-12-22T13:12:39.375Z,33.65
2022-12-22T13:15:29.982Z,35.17
2022-12-22T13:17:57.421Z,30.25
2022-12-22T13:20:34.679Z,34.50
2022-12-22T13:23:10.081Z,36.22
2022-12-22T13:25:53.664Z,39.55
2022-12-22T13:28:23.216Z,36.33
2022-12-22T13:30:59.750Z,34.17
2022-12-22T13:33:31.090Z,29.02
2022-12-22T13:35:59.513Z,29.08
2022-12-22T13:38:32.612Z,28.35
2022-12-22T13:41:02.859Z,28.83
2022-12-22T13:43:32.290Z,32.63
2022-12-22T13:46:02.548Z,28.75
2022-12-22T13:48:45.436Z,28.17
2022-12-22T13:51:20.540Z,24.63
2022-12-22T13:54:42.623Z,29.48
2022-12-22T13:57:17.374Z,25.73
2022-12-22T13:59:46.413Z,26.27
2022-12-22T14:02:20.266Z,28.80
2022-12-22T14:05:06.755Z,24.55
2022-12-22T14:07:33.578Z,22.80
2022-12-22T14:10:00.362Z,24.20
2022-12-22T14:12:36.404Z,27.13
2022-12-22T14:15:03.536Z,24.88
2022-12-22T14:17:31.588Z,29.70
2022-12-22T14:20:23.654Z,27.05
2022-12-22T14:22:58.621Z,25.15
2022-12-22T14:25:36.269Z,28.80
2022-12-22T14:28:06.448Z,23.48
2022-12-22T14:30:38.908Z,26.98
2022-12-22T14:33:38.825Z,27.75
2022-12-22T14:36:05.679Z,30.52
2022-12-22T14:38:40.911Z,27.10
2022-12-22T14:41:46.143Z,28.35
2022-12-22T14:44:29.806Z,27.38
2022-12-22T14:47:17.860Z,26.58
2022-12-22T14:49:47.496Z,27.50
2022-12-22T14:52:43.467Z,29.08
2022-12-22T14:55:25.388Z,27.60
2022-12-22T14:57:56.802Z,28.33
2022-12-22T15:00:23.449Z,23.85
2022-12-22T15:03:02.316Z,28.67
2022-12-22T15:05:36.201Z,28.17
2022-12-22T15:08:07.078Z,26.67
2022-12-22T15:10:43.773Z,32.55
2022-12-22T15:15:45.899Z,26.73
2022-12-22T15:18:15.189Z,23.23
2022-12-22T15:20:42.204Z,32.47
2022-12-22T15:23:16.588Z,22.75
2022-12-22T15:25:43.594Z,22.67
2022-12-22T15:28:10.308Z,26.50
2022-12-22T15:30:37.668Z,25.67
2022-12-22T15:33:04.780Z,27.38
2022-12-22T15:35:34.438Z,26.35
2022-12-22T15:38:01.926Z,27.25
2022-12-22T15:40:29.021Z,27.15
2022-12-22T15:42:55.809Z,27.85
2022-12-22T15:45:22.890Z,28.38
2022-12-22T15:47:53.284Z,26.02
2022-12-22T15:50:38.681Z,24.83
2022-12-22T15:53:09.415Z,27.88
2022-12-22T15:55:42.310Z,29.92
2022-12-22T15:58:11.879Z,25.23
2022-12-22T16:00:38.663Z,27.35
2022-12-22T16:03:06.163Z,29.60
2022-12-22T16:05:34.135Z,33.53
2022-12-22T16:08:01.831Z,25.80
2022-12-22T16:10:30.925Z,28.45
2022-12-22T16:13:00.683Z,30.50
2022-12-22T16:15:29.794Z,28.75
2022-12-22T16:17:57.187Z,29.83
2022-12-22T16:20:25.404Z,30.48
2022-12-22T16:22:53.153Z,28.95
2022-12-22T16:25:31.393Z,31.25
2022-12-22T16:27:58.117Z,29.95
2022-12-22T16:30:26.921Z,28.25
2022-12-22T16:32:53.844Z,33.65
2022-12-22T16:35:23.267Z,32.85
2022-12-22T16:37:50.763Z,31.55
2022-12-22T16:40:19.213Z,31.35
2022-12-22T16:45:36.809Z,39.17
2022-12-22T16:48:09.934Z,35.38
2022-12-22T16:50:36.679Z,38.28
2022-12-22T16:53:05.942Z,39.28
2022-12-22T16:55:33.587Z,37.33
2022-12-22T16:58:00.317Z,36.92
2022-12-22T17:00:30.417Z,38.10
2022-12-22T17:03:04.426Z,39.83
2022-12-22T17:05:44.486Z,38.17
2022-12-22T17:08:23.404Z,39.40
2022-12-22T17:10:51.794Z,37.25
2022-12-22T17:13:19.661Z,40.10
2022-12-22T17:15:46.516Z,38.42
2022-12-22T17:18:17.754Z,42.33
2022-12-22T17:20:46.854Z,36.60
2022-12-22T17:23:36.403Z,35.85
2022-12-22T17:26:08.215Z,39.33
2022-12-22T17:28:37.352Z,39.70
2022-12-22T17:31:04.194Z,41.58
2022-12-22T17:33:32.269Z,36.65
2022-12-22T17:35:59.969Z,38.80
2022-12-22T17:38:27.359Z,41.85
2022-12-22T17:40:54.415Z,41.92
2022-12-22T17:43:21.761Z,41.67
2022-12-22T17:45:48.906Z,39.30
2022-12-22T17:48:16.870Z,43.72
2022-12-22T17:50:49.536Z,36.80
2022-12-22T17:53:19.575Z,40.35
2022-12-22T17:56:07.767Z,46.13
2022-12-22T17:58:34.274Z,38.00
2022-12-22T18:01:01.480Z,38.20
2022-12-22T18:03:28.280Z,39.95
2022-12-22T18:05:55.698Z,43.28
2022-12-22T18:08:22.512Z,40.38
2022-12-22T18:10:49.586Z,38.65
2022-12-22T18:13:22.819Z,42.33
2022-12-22T18:15:49.633Z,44.25
2022-12-22T18:18:18.105Z,48.53
2022-12-22T18:21:06.914Z,40.63
2022-12-22T18:23:35.866Z,44.28
2022-12-22T18:26:04.732Z,41.85
2022-12-22T18:28:31.477Z,42.22
2022-12-22T18:30:58.197Z,46.83
2022-12-22T18:33:24.924Z,42.72
2022-12-22T18:35:51.652Z,45.92
2022-12-22T18:38:30.494Z,42.92
2022-12-22T18:40:57.720Z,42.50
2022-12-22T18:43:24.570Z,44.63
2022-12-22T18:45:51.375Z,44.63
2022-12-22T18:48:18.207Z,43.80
2022-12-22T18:50:44.992Z,43.63
2022-12-22T18:53:29.661Z,44.85
2022-12-22T18:55:57.959Z,45.03
2022-12-22T18:58:25.760Z,42.80
2022-12-22T19:00:54.599Z,51.88
2022-12-22T19:03:24.872Z,50.65
2022-12-22T19:05:51.815Z,46.35
2022-12-22T19:08:24.357Z,46.05
2022-12-22T19:10:56.351Z,47.45
2022-12-22T19:13:37.314Z,49.42
2022-12-22T19:16:04.934Z,49.10
2022-12-22T19:18:31.633Z,47.75
2022-12-22T19:20:58.537Z,49.40
2022-12-22T19:23:26.242Z,49.90
2022-12-22T19:25:55.978Z,54.47
2022-12-22T19:28:35.490Z,49.00
2022-12-22T19:31:02.462Z,53.03
2022-12-22T19:33:36.372Z,51.40
2022-12-22T19:36:04.180Z,53.72
2022-12-22T19:38:35.904Z,45.83
2022-12-22T19:41:04.803Z,49.17
2022-12-22T19:43:31.603Z,55.67
2022-12-22T19:45:58.363Z,56.30
2022-12-22T19:48:27.053Z,50.22
2022-12-22T19:50:54.151Z,54.00
2022-12-22T19:53:21.739Z,51.28
2022-12-22T19:55:54.536Z,51.15
2022-12-22T19:58:35.889Z,53.22
2022-12-22T20:01:03.152Z,52.10
2022-12-22T20:03:30.187Z,51.40
2022-12-22T20:05:56.931Z,47.40
2022-12-22T20:08:23.876Z,47.63
2022-12-22T20:10:58.167Z,44.38
2022-12-22T20:13:27.470Z,48.53
2022-12-22T20:15:54.197Z,42.83
2022-12-22T20:18:28.307Z,48.00
2022-12-22T20:21:02.820Z,47.28
2022-12-22T20:23:33.954Z,44.05
2022-12-22T20:26:04.118Z,45.53
2022-12-22T20:28:33.689Z,47.15
2022-12-22T20:31:02.782Z,44.42
2022-12-22T20:33:30.453Z,49.28
2022-12-22T20:35:59.895Z,48.78
2022-12-22T20:38:41.968Z,47.03
2022-12-22T20:41:10.519Z,54.22
2022-12-22T20:43:38.368Z,46.05
2022-12-22T20:46:19.414Z,46.53
2022-12-22T20:48:56.102Z,48.15
2022-12-22T20:51:24.916Z,50.20
2022-12-22T20:53:52.841Z,41.97
2022-12-22T20:56:39.188Z,46.67
2022-12-22T20:59:19.199Z,48.60
2022-12-22T21:01:47.690Z,44.88
2022-12-22T21:04:15.829Z,44.63
2022-12-22T21:06:52.113Z,50.35
2022-12-22T21:09:19.635Z,49.58
2022-12-22T21:11:46.722Z,52.90
2022-12-22T21:14:14.085Z,48.35
2022-12-22T21:16:41.711Z,52.08
2022-12-22T21:19:09.939Z,46.33
2022-12-22T21:21:36.731Z,48.72
2022-12-22T21:24:03.663Z,47.75
2022-12-22T21:26:35.711Z,48.50
2022-12-22T21:29:07.784Z,51.55
2022-12-22T21:31:34.464Z,54.42
2022-12-22T21:34:01.251Z,48.60
2022-12-22T21:36:31.194Z,54.40
2022-12-22T21:39:01.690Z,49.28
2022-12-22T21:41:47.069Z,55.00
2022-12-22T21:44:13.956Z,51.55
2022-12-22T21:46:42.834Z,51.65
2022-12-22T21:49:21.369Z,51.58
2022-12-22T21:51:49.958Z,49.35
2022-12-22T21:54:18.021Z,47.75
2022-12-22T21:56:45.284Z,51.03
2022-12-22T21:59:12.016Z,51.53
2022-12-22T22:01:41.229Z,51.33
2022-12-22T22:04:09.088Z,48.20
2022-12-22T22:06:35.945Z,45.22
2022-12-22T22:09:04.984Z,46.83
2022-12-22T22:11:32.163Z,55.38
2022-12-22T22:13:59.245Z,53.22
2022-12-22T22:16:26.003Z,56.33
2022-12-22T22:18:52.860Z,52.78
2022-12-22T22:21:19.673Z,49.88
2022-12-22T22:23:46.480Z,50.28
2022-12-22T22:26:13.343Z,56.25
2022-12-22T22:28:39.992Z,56.55
2022-12-22T22:31:11.528Z,53.80
2022-12-22T22:33:38.416Z,55.47
2022-12-22T22:36:08.851Z,51.05
2022-12-22T22:38:36.290Z,57.67
2022-12-22T22:41:03.174Z,50.53
2022-12-22T22:43:29.987Z,53.72
2022-12-22T22:45:56.784Z,55.50
2022-12-22T22:48:24.355Z,53.50
2022-12-22T22:50:51.874Z,52.10
2022-12-22T22:53:18.594Z,51.38
2022-12-22T22:55:45.364Z,55.95
2022-12-22T22:58:12.307Z,48.92
2022-12-22T23:00:39.422Z,48.63
2022-12-22T23:03:06.716Z,46.85
2022-12-22T23:05:33.711Z,52.80
2022-12-22T23:08:00.446Z,46.25
2022-12-22T23:10:27.463Z,45.40
2022-12-22T23:12:54.957Z,46.35
2022-12-22T23:15:21.717Z,46.25
2022-12-22T23:17:50.612Z,43.13
2022-12-22T23:20:17.789Z,39.30
2022-12-22T23:22:44.463Z,46.53
2022-12-22T23:25:11.216Z,45.90
2022-12-22T23:27:38.005Z,45.05
2022-12-22T23:30:05.144Z,48.92
2022-12-22T23:32:31.825Z,49.40
2022-12-22T23:34:58.607Z,50.85
2022-12-22T23:37:25.391Z,47.38
2022-12-22T23:39:52.134Z,52.33
2022-12-22T23:42:18.936Z,53.08
2022-12-22T23:44:45.657Z,53.47
2022-12-22T23:47:12.852Z,56.50
2022-12-22T23:49:39.645Z,51.63
2022-12-22T23:52:06.343Z,49.38
2022-12-22T23:54:33.352Z,54.90
2022-12-22T23:57:00.106Z,56.15
2022-12-22T23:59:26.972Z,59.58
